Time;durP1;ratioP1;P1;durP2;ratioP2;P2;SDS_P1;SDS_P2;PMS_P1;PMS_P2;Temp;Humidity;BMP_temperature;BMP_pressure;BME280_temperature;BME280_humidity;BME280_pressure;Samples;Min_cycle;Max_cycle;Signal;HPM_P1;HPM_P2
2022/08/03 00:02:17;;;;;;;;;;;21.50;99.80;;;;;;5050831;28;20025;-77
2022/08/03 00:04:43;;;;;;;6.35;2.35;;;21.50;99.90;;;;;;5050366;28;19995;-78
2022/08/03 00:07:09;;;;;;;6.55;2.80;;;21.50;99.90;;;;;;5050127;28;20456;-77
2022/08/03 00:09:34;;;;;;;7.95;2.70;;;21.50;99.90;;;;;;5050218;28;20401;-77
2022/08/03 00:12:00;;;;;;;4.38;2.28;;;21.50;99.90;;;;;;5050132;28;20054;-78
2022/08/03 00:14:26;;;;;;;5.22;2.50;;;21.50;99.90;;;;;;5050154;28;20029;-77
2022/08/03 00:16:51;;;;;;;6.78;2.28;;;21.50;99.90;;;;;;5050040;28;20021;-77
2022/08/03 00:19:17;;;;;;;7.72;2.20;;;21.50;99.90;;;;;;5050108;28;20605;-78
2022/08/03 00:21:43;;;;;;;4.70;2.10;;;21.50;99.90;;;;;;5049917;28;20060;-78
2022/08/03 00:24:08;;;;;;;4.03;2.20;;;21.40;99.90;;;;;;5050195;28;20044;-78
2022/08/03 00:26:34;;;;;;;3.97;2.60;;;21.40;99.90;;;;;;5049842;28;20040;-78
2022/08/03 00:29:00;;;;;;;4.63;2.50;;;21.40;99.90;;;;;;5048856;28;20041;-78
2022/08/03 00:31:26;;;;;;;5.13;2.15;;;21.40;99.90;;;;;;5049931;28;20037;-78
2022/08/03 00:33:51;;;;;;;4.78;2.45;;;21.40;99.90;;;;;;5064666;22;20045;-70
2022/08/03 00:36:17;;;;;;;5.25;2.00;;;21.30;99.90;;;;;;5050116;28;20029;-69
2022/08/03 00:38:43;;;;;;;5.40;2.40;;;21.30;99.90;;;;;;5050053;28;20088;-69
2022/08/03 00:41:09;;;;;;;5.53;2.28;;;21.30;99.90;;;;;;5052586;28;20037;-69
2022/08/03 00:43:35;;;;;;;6.50;2.45;;;21.30;99.90;;;;;;5052509;28;20025;-69
2022/08/03 00:46:01;;;;;;;5.45;2.38;;;21.20;99.90;;;;;;5053679;28;20079;-69
2022/08/03 00:48:27;;;;;;;5.72;2.35;;;21.20;99.90;;;;;;5053835;28;20053;-69
2022/08/03 00:50:53;;;;;;;5.88;2.03;;;21.20;99.90;;;;;;5053396;28;20551;-69
2022/08/03 00:53:19;;;;;;;3.95;2.13;;;21.20;99.90;;;;;;5052459;28;20071;-69
2022/08/03 00:55:45;;;;;;;4.03;1.92;;;21.20;99.90;;;;;;5053356;28;20049;-69
2022/08/03 00:58:11;;;;;;;4.63;2.25;;;21.30;99.90;;;;;;5053502;28;20025;-69
2022/08/03 01:00:39;;;;;;;5.75;2.05;;;21.30;99.90;;;;;;5053155;28;20068;-69
2022/08/03 01:03:07;;;;;;;7.13;2.10;;;21.30;99.90;;;;;;5053483;28;20079;-69
2022/08/03 01:06:14;;;;;;;6.00;2.80;;;21.30;99.90;;;;;;5053345;28;20028;-69
2022/08/03 01:08:52;;;;;;;6.47;2.45;;;21.30;99.90;;;;;;5037829;28;20041;-69
2022/08/03 01:11:33;;;;;;;5.30;2.40;;;21.30;99.90;;;;;;5053290;28;20078;-69
2022/08/03 01:14:40;;;;;;;5.68;2.67;;;21.40;99.90;;;;;;5053208;28;20032;-69
2022/08/03 01:17:21;;;;;;;4.00;2.22;;;21.40;99.90;;;;;;5053124;28;20482;-69
2022/08/03 01:19:59;;;;;;;4.25;2.13;;;21.40;99.90;;;;;;5052936;28;20409;-69
2022/08/03 01:22:37;;;;;;;5.53;2.60;;;21.40;99.90;;;;;;5053373;28;20124;-69
2022/08/03 01:25:13;;;;;;;4.47;2.30;;;21.40;99.90;;;;;;5053349;28;20029;-69
2022/08/03 01:27:53;;;;;;;5.50;2.30;;;21.40;99.90;;;;;;5053004;28;20033;-69
2022/08/03 01:30:19;;;;;;;5.82;2.60;;;21.40;99.90;;;;;;5053283;28;20028;-69
2022/08/03 01:32:57;;;;;;;4.93;2.63;;;21.40;99.90;;;;;;5052665;28;20083;-69
2022/08/03 01:36:02;;;;;;;4.43;2.25;;;21.40;99.90;;;;;;5052805;28;20070;-69
2022/08/03 01:38:49;;;;;;;4.20;2.13;;;21.40;99.90;;;;;;5051095;28;20112;-68
2022/08/03 01:41:27;;;;;;;3.75;2.03;;;21.40;99.90;;;;;;5052725;28;20158;-69
2022/08/03 01:43:56;;;;;;;5.38;2.42;;;21.30;99.90;;;;;;5053066;28;20439;-69
2022/08/03 01:46:24;;;;;;;;;;;21.30;99.90;;;;;;5053382;28;20029;-69
2022/08/03 01:48:51;;;;;;;5.13;2.33;;;21.20;99.90;;;;;;5052313;28;20365;-69
2022/08/03 01:51:19;;;;;;;5.10;2.50;;;21.20;99.90;;;;;;5052463;28;20029;-70
2022/08/03 01:53:47;;;;;;;4.75;2.28;;;21.20;99.90;;;;;;5052583;28;20029;-69
2022/08/03 01:56:15;;;;;;;4.93;2.40;;;21.20;99.90;;;;;;5052408;28;20107;-69
2022/08/03 01:58:43;;;;;;;6.78;2.20;;;21.10;99.90;;;;;;5052232;28;20024;-69
2022/08/03 02:01:10;;;;;;;4.88;2.17;;;21.10;99.90;;;;;;5052368;28;20028;-69
2022/08/03 02:03:41;;;;;;;5.72;2.53;;;21.10;99.90;;;;;;5052238;28;20043;-69
2022/08/03 02:06:10;;;;;;;4.50;2.08;;;21.00;99.90;;;;;;5052131;28;20111;-68
2022/08/03 02:08:38;;;;;;;5.38;2.00;;;21.00;99.90;;;;;;5051987;28;20087;-69
2022/08/03 02:11:05;;;;;;;4.68;2.03;;;21.00;99.90;;;;;;5052093;28;20024;-69
2022/08/03 02:13:34;;;;;;;4.43;2.30;;;21.00;99.90;;;;;;5052089;28;20043;-69
2022/08/03 02:16:03;;;;;;;4.57;2.20;;;20.90;99.90;;;;;;5051900;28;20025;-69
2022/08/03 02:18:31;;;;;;;4.63;2.35;;;20.90;99.90;;;;;;5052285;28;20043;-69
2022/08/03 02:21:01;;;;;;;4.18;2.22;;;20.80;99.90;;;;;;5052202;28;20060;-69
2022/08/03 02:23:27;;;;;;;9.13;2.45;;;20.80;99.90;;;;;;5052037;28;20091;-69
2022/08/03 02:25:57;;;;;;;4.40;2.08;;;20.80;99.90;;;;;;5050529;28;20455;-69
2022/08/03 02:28:34;;;;;;;6.80;2.55;;;20.70;99.90;;;;;;5051856;28;20215;-68
2022/08/03 02:31:05;;;;;;;3.05;2.05;;;20.70;99.90;;;;;;5051725;28;20037;-69
2022/08/03 02:33:36;;;;;;;4.55;2.33;;;20.60;99.90;;;;;;5051686;28;20033;-69
2022/08/03 02:36:05;;;;;;;4.20;2.60;;;20.70;99.90;;;;;;5051671;28;20029;-69
2022/08/03 02:38:35;;;;;;;3.33;2.10;;;20.60;99.90;;;;;;5051374;28;20461;-69
2022/08/03 02:41:06;;;;;;;5.53;2.63;;;20.70;99.90;;;;;;5052043;28;20384;-69
2022/08/03 02:43:35;;;;;;;4.15;2.40;;;20.70;99.90;;;;;;5051594;28;20040;-68
2022/08/03 02:46:01;;;;;;;6.38;3.08;;;20.70;99.90;;;;;;5051368;28;20032;-69
2022/08/03 02:48:29;;;;;;;5.63;2.20;;;20.60;99.90;;;;;;5050179;28;20074;-69
2022/08/03 02:50:58;;;;;;;4.50;2.70;;;20.60;99.90;;;;;;5051502;28;20032;-69
2022/08/03 02:53:25;;;;;;;5.40;2.60;;;20.60;99.90;;;;;;5051379;28;20137;-69
2022/08/03 02:55:53;;;;;;;7.32;2.70;;;20.60;99.90;;;;;;5051158;28;20081;-69
2022/08/03 02:58:22;;;;;;;7.30;2.97;;;20.60;99.90;;;;;;5051576;28;20498;-69
2022/08/03 03:00:50;;;;;;;5.38;2.50;;;20.50;99.90;;;;;;5050941;28;20036;-69
2022/08/03 03:03:17;;;;;;;6.13;2.53;;;20.50;99.90;;;;;;5049613;28;20044;-69
2022/08/03 03:05:44;;;;;;;6.90;2.72;;;20.50;99.90;;;;;;5049835;28;20114;-69
2022/08/03 03:08:16;;;;;;;4.93;2.60;;;20.50;99.90;;;;;;5051517;28;20036;-69
2022/08/03 03:10:43;;;;;;;4.15;2.33;;;20.50;99.90;;;;;;5050832;28;20484;-69
2022/08/03 03:13:10;;;;;;;4.50;2.53;;;20.50;99.90;;;;;;5051053;28;20032;-68
2022/08/03 03:15:38;;;;;;;4.88;2.45;;;20.50;99.90;;;;;;5049943;28;20397;-68
2022/08/03 03:18:05;;;;;;;6.50;2.88;;;20.40;99.90;;;;;;5051113;28;20025;-69
2022/08/03 03:20:34;;;;;;;5.93;2.65;;;20.40;99.90;;;;;;5050711;28;20028;-69
2022/08/03 03:23:01;;;;;;;6.07;2.83;;;20.40;99.90;;;;;;5050792;28;20090;-69
2022/08/03 03:25:31;;;;;;;8.20;2.75;;;20.40;99.90;;;;;;5050937;28;20440;-69
2022/08/03 03:28:01;;;;;;;5.30;2.80;;;20.40;99.90;;;;;;5050760;28;20108;-68
2022/08/03 03:30:28;;;;;;;6.03;2.95;;;20.40;99.90;;;;;;5050866;28;20051;-69
2022/08/03 03:32:57;;;;;;;7.93;3.00;;;20.30;99.90;;;;;;5050794;28;20033;-69
2022/08/03 03:35:24;;;;;;;5.65;3.03;;;20.30;99.90;;;;;;5050744;28;20029;-69
2022/08/03 03:37:51;;;;;;;6.72;3.15;;;20.40;99.90;;;;;;5050688;28;20468;-69
2022/08/03 03:40:18;;;;;;;7.18;3.33;;;20.40;99.90;;;;;;5050481;28;20029;-69
2022/08/03 03:42:44;;;;;;;5.30;2.85;;;20.40;99.90;;;;;;5049431;28;20028;-69
2022/08/03 03:45:11;;;;;;;5.70;2.85;;;20.40;99.90;;;;;;5050771;28;20037;-69
2022/08/03 03:47:37;;;;;;;4.93;2.90;;;20.40;99.90;;;;;;5050938;28;20029;-68
2022/08/03 03:50:04;;;;;;;6.03;3.28;;;20.40;99.90;;;;;;5050360;28;20607;-68
2022/08/03 03:52:33;;;;;;;5.35;3.08;;;20.40;99.90;;;;;;5050553;28;20056;-69
2022/08/03 03:54:59;;;;;;;;;;;20.40;99.90;;;;;;5051078;28;20060;-69
2022/08/03 03:57:25;;;;;;;6.18;3.45;;;20.40;99.90;;;;;;5050567;28;20191;-69
2022/08/03 03:59:51;;;;;;;6.15;3.05;;;20.40;99.90;;;;;;5050228;28;20051;-69
2022/08/03 04:02:17;;;;;;;4.90;3.00;;;20.40;99.90;;;;;;5050557;28;20075;-69
2022/08/03 04:13:09;;;;;;;6.25;3.00;;;20.50;99.90;;;;;;5050341;28;20033;-69
2022/08/03 04:15:38;;;;;;;7.53;3.70;;;20.40;99.90;;;;;;5052208;28;20035;-69
2022/08/03 04:18:07;;;;;;;6.97;3.63;;;20.40;99.90;;;;;;5054387;28;20028;-69
2022/08/03 04:20:35;;;;;;;5.18;3.13;;;20.50;99.90;;;;;;5053993;28;20039;-69
2022/08/03 04:23:02;;;;;;;5.63;3.13;;;20.50;99.90;;;;;;5054607;28;20057;-69
2022/08/03 04:25:33;;;;;;;5.80;3.08;;;20.50;99.90;;;;;;5054098;28;20037;-69
2022/08/03 04:28:01;;;;;;;6.57;3.28;;;20.50;99.90;;;;;;5054195;28;20108;-69
2022/08/03 04:30:28;;;;;;;6.13;3.20;;;20.60;99.90;;;;;;5053980;28;20090;-69
2022/08/03 04:32:58;;;;;;;6.50;3.30;;;20.60;99.90;;;;;;5054030;28;20056;-69
2022/08/03 04:35:27;;;;;;;5.22;3.10;;;20.60;99.90;;;;;;5054161;28;20025;-69
2022/08/03 04:37:55;;;;;;;5.35;3.28;;;20.60;99.90;;;;;;5053837;28;20033;-69
2022/08/03 04:40:26;;;;;;;8.33;3.20;;;20.70;99.90;;;;;;5053749;28;20062;-69
2022/08/03 04:42:54;;;;;;;7.53;3.20;;;20.70;99.90;;;;;;5053949;28;20044;-69
2022/08/03 04:45:21;;;;;;;5.60;3.30;;;20.70;99.90;;;;;;5054079;28;20420;-69
2022/08/03 04:47:49;;;;;;;6.70;3.05;;;20.80;99.90;;;;;;5054106;28;20611;-69
2022/08/03 04:50:15;;;;;;;6.25;2.83;;;20.80;99.90;;;;;;5053423;28;20040;-69
2022/08/03 04:53:02;;;;;;;6.88;3.20;;;20.80;99.90;;;;;;5053480;28;20041;-69
2022/08/03 04:55:32;;;;;;;5.50;3.28;;;20.90;99.90;;;;;;5053762;28;20036;-69
2022/08/03 04:57:59;;;;;;;5.80;2.80;;;20.90;99.90;;;;;;5052251;28;20028;-69
2022/08/03 05:00:26;;;;;;;7.13;3.25;;;20.90;99.90;;;;;;5052419;28;20025;-69
2022/08/03 05:02:52;;;;;;;4.95;3.33;;;20.90;99.90;;;;;;5053359;28;20032;-69
2022/08/03 05:05:19;;;;;;;5.22;3.35;;;20.90;99.90;;;;;;5053395;28;20087;-69
2022/08/03 05:07:45;;;;;;;5.53;3.20;;;20.90;99.90;;;;;;5053258;28;20036;-69
2022/08/03 05:10:11;;;;;;;6.68;3.42;;;20.90;99.90;;;;;;5053163;28;20033;-69
2022/08/03 05:12:38;;;;;;;5.38;3.00;;;20.90;99.90;;;;;;5053219;28;20130;-69
2022/08/03 05:15:05;;;;;;;4.90;3.33;;;20.90;99.90;;;;;;5053351;28;20021;-69
2022/08/03 05:17:32;;;;;;;6.47;3.65;;;20.90;99.90;;;;;;5053102;28;20045;-69
2022/08/03 05:19:59;;;;;;;5.68;3.63;;;20.90;99.90;;;;;;5052956;28;20445;-69
2022/08/03 05:22:25;;;;;;;5.75;3.70;;;20.90;99.90;;;;;;5053221;28;20027;-69
2022/08/03 05:24:51;;;;;;;5.32;3.45;;;20.90;99.90;;;;;;5053165;28;20482;-69
2022/08/03 05:27:18;;;;;;;5.65;3.40;;;21.00;99.90;;;;;;5051232;28;20033;-69
2022/08/03 05:29:48;;;;;;;7.55;4.30;;;21.00;99.90;;;;;;5052746;28;20119;-69
2022/08/03 05:32:16;;;;;;;10.23;4.03;;;21.00;99.90;;;;;;5051421;28;20036;-69
2022/08/03 05:34:42;;;;;;;11.73;4.35;;;21.10;99.90;;;;;;5051741;28;20080;-69
2022/08/03 05:37:09;;;;;;;7.97;4.10;;;21.10;99.90;;;;;;5052896;28;20024;-69
2022/08/03 05:39:35;;;;;;;8.40;4.28;;;21.20;99.90;;;;;;5052621;28;20078;-69
2022/08/03 05:42:01;;;;;;;9.68;4.63;;;21.20;99.90;;;;;;5051472;28;20024;-69
2022/08/03 05:44:28;;;;;;;8.93;4.35;;;21.20;99.90;;;;;;5052714;28;20025;-69
2022/08/03 05:46:54;;;;;;;8.30;4.30;;;21.20;99.90;;;;;;5052531;28;20051;-69
2022/08/03 05:49:20;;;;;;;5.95;4.05;;;21.30;99.90;;;;;;5052307;28;20044;-69
2022/08/03 05:51:46;;;;;;;6.25;3.72;;;21.30;99.90;;;;;;5051277;28;20029;-69
2022/08/03 05:54:12;;;;;;;9.23;3.92;;;21.30;99.90;;;;;;5052367;28;20036;-69
2022/08/03 05:56:39;;;;;;;7.82;4.03;;;21.40;99.90;;;;;;5052353;28;20021;-69
2022/08/03 05:59:05;;;;;;;7.18;4.05;;;21.40;99.90;;;;;;5052248;28;20029;-69
2022/08/03 06:01:32;;;;;;;5.32;3.70;;;21.40;99.90;;;;;;5052788;28;20028;-69
2022/08/03 06:03:58;;;;;;;9.75;5.15;;;21.50;99.90;;;;;;5052255;28;20511;-69
2022/08/03 06:06:24;;;;;;;10.30;6.50;;;21.50;99.90;;;;;;5052302;28;20587;-69
2022/08/03 06:08:50;;;;;;;8.18;5.28;;;21.60;99.90;;;;;;5052134;28;20115;-69
2022/08/03 06:11:16;;;;;;;7.68;4.97;;;21.70;99.90;;;;;;5052098;28;20040;-69
2022/08/03 06:13:42;;;;;;;7.07;4.88;;;21.70;99.90;;;;;;5052236;28;20419;-69
2022/08/03 06:16:09;;;;;;;8.63;4.63;;;21.70;99.90;;;;;;5052088;28;20432;-69
2022/08/03 06:18:35;;;;;;;10.65;5.40;;;21.80;99.90;;;;;;5052060;28;20378;-69
2022/08/03 06:21:02;;;;;;;9.65;4.53;;;21.80;99.90;;;;;;5052083;28;20078;-69
2022/08/03 06:23:28;;;;;;;7.43;3.72;;;21.80;99.90;;;;;;5050930;28;20035;-69
2022/08/03 06:25:53;;;;;;;11.18;4.20;;;21.90;99.90;;;;;;5051883;28;20029;-69
2022/08/03 06:28:19;;;;;;;18.00;5.43;;;21.90;99.90;;;;;;5051939;28;20136;-69
2022/08/03 06:30:45;;;;;;;9.70;4.38;;;21.90;99.90;;;;;;5051618;28;20024;-69
2022/08/03 06:33:11;;;;;;;8.57;4.10;;;22.00;99.90;;;;;;5065463;22;20053;-66
2022/08/03 06:35:37;;;;;;;6.35;3.72;;;22.00;99.90;;;;;;5052011;28;20057;-67
2022/08/03 06:38:04;;;;;;;8.18;3.92;;;22.10;99.90;;;;;;5051307;28;20127;-67
2022/08/03 06:40:30;;;;;;;11.10;5.53;;;22.10;99.90;;;;;;5051972;28;20452;-66
2022/08/03 06:42:57;;;;;;;7.57;4.70;;;22.10;99.90;;;;;;5051886;28;20025;-64
2022/08/03 06:45:25;;;;;;;7.47;4.70;;;22.20;99.90;;;;;;5051811;28;20032;-65
2022/08/03 06:48:05;;;;;;;7.47;4.03;;;22.20;99.90;;;;;;5051814;28;20044;-64
2022/08/03 06:50:32;;;;;;;9.30;4.22;;;22.30;99.90;;;;;;5051506;28;20039;-64
2022/08/03 06:53:00;;;;;;;6.55;4.20;;;22.30;99.90;;;;;;5051868;28;20037;-64
2022/08/03 06:55:26;;;;;;;8.13;4.57;;;22.30;99.90;;;;;;5051511;28;20116;-64
2022/08/03 06:57:52;;;;;;;6.38;3.75;;;22.40;99.90;;;;;;5051986;28;20123;-64
2022/08/03 07:00:19;;;;;;;11.27;4.80;;;22.40;99.90;;;;;;5051260;28;20028;-64
2022/08/03 07:02:45;;;;;;;5.43;3.50;;;22.40;99.90;;;;;;5051684;28;20035;-64
2022/08/03 07:05:12;;;;;;;10.85;4.60;;;22.40;99.90;;;;;;5051667;28;20440;-64
2022/08/03 07:07:38;;;;;;;7.60;4.22;;;22.50;99.90;;;;;;5051367;28;20025;-64
2022/08/03 07:10:05;;;;;;;9.32;4.28;;;22.50;99.90;;;;;;5051071;28;20362;-64
2022/08/03 07:12:32;;;;;;;10.37;4.00;;;22.50;99.90;;;;;;5051289;28;20033;-64
2022/08/03 07:15:00;;;;;;;8.57;4.35;;;22.60;99.90;;;;;;5051492;28;20268;-64
2022/08/03 07:17:26;;;;;;;6.05;4.07;;;22.60;99.90;;;;;;5051237;28;20021;-64
2022/08/03 07:19:52;;;;;;;9.70;3.53;;;22.60;99.90;;;;;;5051115;28;20032;-64
2022/08/03 07:22:18;;;;;;;9.55;3.78;;;22.60;99.90;;;;;;5051160;28;20384;-67
2022/08/03 07:24:44;;;;;;;13.75;3.78;;;22.70;99.90;;;;;;5051096;28;20052;-64
2022/08/03 07:27:10;;;;;;;11.32;4.35;;;22.80;99.90;;;;;;5051075;28;20079;-64
2022/08/03 07:29:36;;;;;;;10.57;4.28;;;22.80;99.90;;;;;;5051096;28;20033;-64
2022/08/03 07:32:03;;;;;;;9.05;3.55;;;22.80;99.80;;;;;;5051015;28;20024;-64
2022/08/03 07:34:30;;;;;;;7.05;3.80;;;22.90;99.70;;;;;;5051032;28;20229;-65
2022/08/03 07:36:56;;;;;;;6.13;3.00;;;22.90;99.60;;;;;;5051171;28;20083;-64
2022/08/03 07:39:22;;;;;;;8.85;3.10;;;23.00;99.60;;;;;;5050953;28;20028;-63
2022/08/03 07:41:51;;;;;;;7.72;2.80;;;23.00;99.50;;;;;;5051208;28;20017;-65
2022/08/03 07:44:18;;;;;;;6.28;3.10;;;23.00;99.50;;;;;;5051006;28;20090;-65
2022/08/03 07:46:44;;;;;;;7.15;3.20;;;23.10;99.40;;;;;;5050952;28;20037;-65
2022/08/03 07:49:10;;;;;;;6.80;2.70;;;23.20;99.10;;;;;;5051748;28;20035;-64
2022/08/03 07:51:36;;;;;;;6.47;2.67;;;23.20;98.90;;;;;;5055144;28;20116;-65
2022/08/03 07:54:03;;;;;;;8.30;2.97;;;23.30;98.80;;;;;;5055228;28;20378;-64
2022/08/03 07:56:29;;;;;;;5.70;2.80;;;23.30;98.70;;;;;;5053657;28;20040;-65
2022/08/03 07:58:55;;;;;;;7.30;2.50;;;23.40;98.60;;;;;;5053666;28;20025;-65
2022/08/03 08:01:21;;;;;;;5.78;2.65;;;23.40;98.20;;;;;;5054697;28;20080;-65
2022/08/03 08:03:49;;;;;;;7.53;2.50;;;23.40;98.20;;;;;;5055225;28;20112;-65
2022/08/03 08:06:16;;;;;;;5.50;3.10;;;23.50;98.20;;;;;;5055003;28;20229;-65
2022/08/03 08:08:42;;;;;;;12.27;3.40;;;23.50;98.20;;;;;;5054712;28;20025;-65
2022/08/03 08:11:09;;;;;;;6.57;2.67;;;23.50;98.20;;;;;;5053571;28;20543;-65
2022/08/03 08:13:37;;;;;;;8.95;2.80;;;23.60;98.10;;;;;;5054859;28;20035;-65
2022/08/03 08:16:04;;;;;;;5.13;2.00;;;23.70;98.10;;;;;;5054732;28;20025;-65
2022/08/03 08:18:30;;;;;;;21.85;3.90;;;23.70;97.90;;;;;;5053455;28;20082;-65
2022/08/03 08:20:56;;;;;;;7.97;2.67;;;23.70;98.00;;;;;;5054472;28;20043;-65
2022/08/03 08:23:23;;;;;;;7.55;2.20;;;23.80;97.80;;;;;;5054643;28;20485;-64
2022/08/03 08:25:50;;;;;;;6.40;2.90;;;23.80;97.70;;;;;;5054388;28;20040;-65
2022/08/03 08:28:20;;;;;;;9.68;3.00;;;23.80;97.70;;;;;;5054661;28;20061;-65
2022/08/03 08:30:47;;;;;;;5.10;2.60;;;23.90;97.60;;;;;;5054348;28;20029;-67
2022/08/03 08:33:13;;;;;;;8.52;3.25;;;23.90;97.50;;;;;;5054381;28;20025;-66
2022/08/03 08:35:39;;;;;;;9.60;3.75;;;23.90;97.50;;;;;;5054389;28;20215;-66
2022/08/03 08:38:05;;;;;;;13.65;5.22;;;24.00;97.50;;;;;;5054496;28;20456;-65
2022/08/03 08:40:31;;;;;;;9.32;3.25;;;24.00;97.50;;;;;;5054407;28;20025;-66
2022/08/03 08:42:57;;;;;;;7.97;3.15;;;24.10;97.30;;;;;;5054657;28;20436;-66
2022/08/03 08:45:23;;;;;;;6.35;2.88;;;24.10;97.20;;;;;;5054598;28;20025;-65
2022/08/03 08:47:50;;;;;;;8.00;3.40;;;24.20;97.20;;;;;;5054709;28;20029;-65
2022/08/03 08:50:20;;;;;;;7.75;3.38;;;24.20;96.90;;;;;;5054681;28;20066;-66
2022/08/03 08:52:49;;;;;;;8.23;3.00;;;24.20;96.80;;;;;;5054289;28;20047;-66
2022/08/03 08:55:22;;;;;;;;;;;24.20;96.90;;;;;;5054947;28;20112;-64
2022/08/03 08:57:51;;;;;;;12.32;4.45;;;24.30;97.00;;;;;;5054200;28;20046;-65
2022/08/03 09:00:17;;;;;;;12.48;4.88;;;24.30;96.80;;;;;;5054226;28;20389;-65
2022/08/03 09:02:44;;;;;;;19.08;6.20;;;24.40;96.80;;;;;;5053602;28;20021;-66
2022/08/03 09:05:13;;;;;;;10.85;4.63;;;24.40;96.70;;;;;;5053046;28;20478;-66
2022/08/03 09:07:40;;;;;;;8.57;4.80;;;24.50;96.80;;;;;;5054353;28;20417;-65
2022/08/03 09:10:08;;;;;;;11.57;4.15;;;24.40;96.80;;;;;;5054023;28;20029;-66
2022/08/03 09:12:45;;;;;;;11.38;3.85;;;24.50;96.70;;;;;;5054173;28;20047;-66
2022/08/03 09:15:31;;;;;;;43.33;7.72;;;24.50;96.60;;;;;;5054533;28;20042;-65
2022/08/03 09:18:02;;;;;;;10.10;3.83;;;24.60;96.50;;;;;;5054030;28;20055;-66
2022/08/03 09:20:32;;;;;;;12.68;3.75;;;24.70;95.90;;;;;;5053823;28;20029;-65
2022/08/03 09:23:03;;;;;;;8.75;3.42;;;24.70;95.80;;;;;;5053796;28;20112;-66
2022/08/03 09:25:33;;;;;;;9.57;3.17;;;24.80;95.80;;;;;;5053942;28;20091;-66
2022/08/03 09:28:16;;;;;;;11.43;3.03;;;24.80;95.30;;;;;;5053780;28;20051;-66
2022/08/03 09:30:44;;;;;;;8.88;2.83;;;24.90;95.10;;;;;;5053546;28;20040;-66
2022/08/03 09:33:12;;;;;;;8.10;3.20;;;25.00;94.40;;;;;;5053416;28;20480;-65
2022/08/03 09:35:48;;;;;;;9.52;3.35;;;25.10;94.40;;;;;;5053531;28;20040;-66
2022/08/03 09:38:22;;;;;;;13.50;4.13;;;25.20;94.50;;;;;;5052667;28;20493;-66
2022/08/03 09:40:49;;;;;;;8.68;2.90;;;25.30;94.20;;;;;;5053858;28;20111;-66
2022/08/03 09:43:15;;;;;;;11.98;3.58;;;25.30;94.20;;;;;;5054165;28;20060;-66
2022/08/03 09:45:43;;;;;;;9.13;2.63;;;25.30;94.10;;;;;;5053675;28;20128;-66
2022/08/03 09:48:20;;;;;;;10.95;3.33;;;25.30;93.40;;;;;;5053364;28;20161;-65
2022/08/03 09:51:07;;;;;;;9.15;2.60;;;25.40;92.90;;;;;;5053086;28;20116;-66
2022/08/03 09:53:43;;;;;;;7.53;3.00;;;25.50;93.30;;;;;;5051901;28;20035;-65
2022/08/03 09:56:09;;;;;;;10.07;2.70;;;25.40;93.00;;;;;;5053244;28;20036;-66
2022/08/03 09:58:45;;;;;;;8.20;3.20;;;25.50;93.10;;;;;;5052830;28;20037;-66
2022/08/03 10:01:11;;;;;;;6.80;3.30;;;25.50;93.00;;;;;;5053310;28;20485;-66
2022/08/03 10:03:38;;;;;;;6.80;3.25;;;25.50;92.70;;;;;;5053156;28;20033;-66
2022/08/03 10:06:22;;;;;;;18.17;3.50;;;25.50;92.50;;;;;;5051719;28;20507;-66
2022/08/03 10:09:08;;;;;;;10.00;3.80;;;25.60;92.70;;;;;;5052920;28;20496;-66
2022/08/03 10:11:34;;;;;;;7.25;2.85;;;25.60;92.80;;;;;;5052902;28;20087;-66
2022/08/03 10:14:05;;;;;;;6.10;2.53;;;25.60;92.50;;;;;;5051842;28;20065;-65
2022/08/03 10:16:36;;;;;;;3.80;1.67;;;25.70;91.90;;;;;;5052755;28;20032;-66
2022/08/03 10:19:04;;;;;;;4.38;2.10;;;25.80;91.80;;;;;;5052659;28;20107;-66
2022/08/03 10:21:37;;;;;;;7.63;3.83;;;25.90;91.60;;;;;;5052824;28;20108;-65
2022/08/03 10:24:09;;;;;;;7.30;2.70;;;25.90;91.70;;;;;;5052858;28;20032;-65
2022/08/03 10:26:38;;;;;;;6.60;2.00;;;26.00;91.20;;;;;;5052720;28;20130;-65
2022/08/03 10:29:10;;;;;;;5.97;2.60;;;26.00;90.90;;;;;;5052325;28;20556;-65
2022/08/03 10:31:43;;;;;;;5.15;3.05;;;26.10;90.70;;;;;;5052450;28;20037;-65
2022/08/03 10:34:23;;;;;;;4.25;2.20;;;26.10;90.40;;;;;;5052244;28;20121;-66
2022/08/03 10:36:52;;;;;;;3.90;1.88;;;26.20;90.50;;;;;;5050990;28;20029;-65
2022/08/03 10:39:35;;;;;;;6.45;3.13;;;26.20;90.00;;;;;;5052088;28;20036;-65
2022/08/03 10:42:04;;;;;;;6.65;2.42;;;26.30;90.00;;;;;;5052328;28;20025;-65
2022/08/03 10:44:38;;;;;;;5.10;2.58;;;26.40;90.10;;;;;;5052386;28;20037;-66
2022/08/03 10:47:05;;;;;;;9.65;3.75;;;26.30;90.30;;;;;;5052396;28;20086;-66
2022/08/03 10:49:32;;;;;;;4.70;1.88;;;26.30;90.30;;;;;;5052035;28;20025;-65
2022/08/03 10:51:58;;;;;;;9.40;4.57;;;26.30;90.20;;;;;;5052396;28;20040;-65
2022/08/03 10:54:36;;;;;;;5.93;2.83;;;26.30;90.40;;;;;;5052200;28;20108;-66
2022/08/03 10:59:47;;;;;;;4.85;2.40;;;26.30;90.00;;;;;;5051603;28;20078;-66
2022/08/03 11:02:14;;;;;;;4.07;1.77;;;26.30;89.90;;;;;;5051976;28;20103;-65
2022/08/03 11:04:41;;;;;;;3.92;1.70;;;26.40;89.20;;;;;;5051819;28;20029;-66
2022/08/03 11:07:23;;;;;;;7.30;2.15;;;26.50;89.30;;;;;;5051839;28;20151;-66
2022/08/03 11:09:50;;;;;;;4.35;1.63;;;26.50;89.00;;;;;;5051562;28;20029;-65
2022/08/03 11:12:31;;;;;;;4.47;1.98;;;26.60;89.20;;;;;;5050656;28;20108;-67
2022/08/03 11:15:03;;;;;;;4.10;1.65;;;26.70;89.30;;;;;;5050803;28;20504;-66
2022/08/03 11:17:30;;;;;;;3.97;1.70;;;26.70;88.70;;;;;;5051712;28;20123;-66
2022/08/03 11:19:56;;;;;;;137.30;22.30;;;26.70;87.70;;;;;;5051482;28;20558;-65
2022/08/03 11:22:23;;;;;;;38.28;9.05;;;26.70;88.10;;;;;;5051596;28;20029;-66
2022/08/03 11:24:56;;;;;;;5.60;2.72;;;26.60;88.50;;;;;;5051254;28;20037;-66
2022/08/03 11:27:30;;;;;;;4.63;1.73;;;26.60;89.00;;;;;;5051532;28;20033;-66
2022/08/03 11:30:08;;;;;;;5.40;1.50;;;26.70;89.10;;;;;;5051629;28;20056;-66
2022/08/03 11:32:40;;;;;;;3.20;1.35;;;26.80;88.50;;;;;;5051385;28;20343;-65
2022/08/03 11:35:28;;;;;;;7.05;1.85;;;27.00;88.10;;;;;;5051675;28;20048;-66
2022/08/03 11:37:57;;;;;;;4.90;2.05;;;27.10;87.60;;;;;;5051783;28;20029;-66
2022/08/03 11:40:46;;;;;;;4.82;1.77;;;27.20;87.00;;;;;;5051349;28;20029;-66
2022/08/03 11:43:22;;;;;;;3.55;1.55;;;27.20;87.60;;;;;;5051900;28;20048;-65
2022/08/03 11:46:12;;;;;;;4.85;1.60;;;27.20;87.60;;;;;;5051315;28;20079;-66
2022/08/03 11:48:46;;;;;;;3.03;1.45;;;27.10;87.40;;;;;;5051483;28;20100;-66
2022/08/03 11:51:25;;;;;;;5.10;1.83;;;27.10;87.20;;;;;;5051465;28;20029;-65
2022/08/03 11:53:54;;;;;;;4.68;1.50;;;27.20;86.90;;;;;;5051702;28;20040;-65
2022/08/03 11:56:20;;;;;;;4.03;1.67;;;27.20;86.40;;;;;;5050865;28;20029;-66
2022/08/03 11:58:47;;;;;;;4.80;1.75;;;27.20;86.40;;;;;;5051211;28;20070;-65
2022/08/03 12:01:15;;;;;;;6.25;1.42;;;27.30;85.80;;;;;;5051472;28;20025;-65
2022/08/03 12:03:42;;;;;;;3.80;1.55;;;27.40;84.80;;;;;;5051340;28;20033;-66
2022/08/03 12:06:13;;;;;;;6.05;1.40;;;27.40;85.20;;;;;;5051516;28;20029;-66
2022/08/03 12:08:41;;;;;;;3.78;1.75;;;27.40;85.00;;;;;;5051286;28;20033;-66
2022/08/03 12:11:09;;;;;;;3.57;1.40;;;27.50;85.10;;;;;;5051339;28;20060;-66
2022/08/03 12:13:36;;;;;;;4.38;1.50;;;27.40;85.10;;;;;;5051697;28;20035;-66
2022/08/03 12:16:02;;;;;;;10.27;2.30;;;27.40;84.80;;;;;;5051135;28;20497;-66
2022/08/03 12:18:28;;;;;;;3.92;1.48;;;27.40;84.90;;;;;;5051026;28;20036;-66
2022/08/03 12:21:05;;;;;;;4.55;1.30;;;27.40;84.00;;;;;;5051013;28;20021;-66
2022/08/03 12:23:31;;;;;;;6.30;1.95;;;27.50;83.50;;;;;;5051106;28;20033;-65
2022/08/03 12:26:05;;;;;;;3.33;1.20;;;27.60;82.60;;;;;;5050935;28;20037;-65
2022/08/03 12:28:32;;;;;;;3.55;1.25;;;27.70;81.60;;;;;;5051034;28;20037;-67
2022/08/03 12:31:06;;;;;;;5.03;1.80;;;27.80;80.90;;;;;;5051119;28;20029;-65
2022/08/03 12:34:00;;;;;;;4.05;1.42;;;27.80;80.80;;;;;;5065314;22;20041;-70
2022/08/03 12:36:27;;;;;;;5.18;1.23;;;27.80;80.70;;;;;;5052039;28;20075;-70
2022/08/03 12:39:01;;;;;;;6.50;2.45;;;27.80;81.30;;;;;;5054445;28;20389;-70
2022/08/03 12:41:30;;;;;;;5.72;2.03;;;27.90;82.00;;;;;;5054492;28;20478;-70
2022/08/03 12:43:56;;;;;;;4.60;1.70;;;27.90;81.70;;;;;;5053324;28;20036;-70
2022/08/03 12:46:28;;;;;;;6.10;1.88;;;28.00;80.60;;;;;;5054409;28;20033;-70
2022/08/03 12:49:15;;;;;;;4.32;1.85;;;28.10;80.40;;;;;;5054472;28;20366;-70
2022/08/03 12:51:41;;;;;;;7.22;2.47;;;28.10;80.50;;;;;;5054454;28;20505;-70
2022/08/03 12:54:08;;;;;;;4.30;1.50;;;28.00;80.50;;;;;;5052948;28;20041;-70
2022/08/03 12:56:34;;;;;;;4.72;1.90;;;28.00;80.30;;;;;;5054590;28;20044;-70
2022/08/03 12:59:21;;;;;;;5.72;1.83;;;28.10;80.50;;;;;;5054035;28;20046;-70
2022/08/03 13:01:46;;;;;;;4.43;2.40;;;28.10;80.20;;;;;;5053846;28;20021;-70
2022/08/03 13:04:34;;;;;;;5.28;1.40;;;28.00;80.40;;;;;;5054172;28;20485;-70
2022/08/03 13:07:02;;;;;;;6.63;1.50;;;28.10;78.60;;;;;;5053916;28;20079;-71
2022/08/03 13:09:39;;;;;;;5.63;1.58;;;28.20;78.00;;;;;;5053905;28;20025;-70